Flight Briefing for CMB853

Departure Arrival
Yokota AFB (RJTY)
Click to view FAA NOTAMS
Guam International Airport (PGUM)
Click to view FAA NOTAMS
Departure Time Arrival Time
N/A N/A
Aircraft Distance
B757-200SF 1364nm
Departure METAR Arrival METAR
RJTY 250156Z AUTO 21007KT 10SM CLR 29/10 A3005 RMK AO2 SLP173 T02900096 FZRANO $ PGUM 250154Z 14007KT 10SM FEW030 31/23 A2989 RMK AO2 SLP114 T03110228
Suggested Route
XAC B586 UNZ


View recent IFR Routes data
Notes
USTRANSCOM CONTRACT FLIGHT

Charts and Procedures

Charts for RJTY
No chart available
Charts for PGUM
No chart available

Windy.com Weather Map